TRADE22 KHND-KPSP
Flight info
| Callsign | TRADE22 |
|---|---|
| Flight time | 0h 47m |
| Altitude | 22000 |
| Route | OYODA2 BLAQQ ZELMA RDBUL1 |
| Aircraft | P46T/L-SBDGRWY/SB1 |
Departure
| Time | 2026-05-06 05:44 |
|---|---|
| Airport | Henderson Executive Airport (KHND) |
Arrival
| Time | 2026-05-06 06:32 |
|---|---|
| Airport | Palm Springs International Airport (KPSP) |
| Time | Latitude | Longitude | Altitude | Speed | Heading |
|---|---|---|---|---|---|
| 2026-05-06 05:27 | 35.97467 | -115.13895 | 2441 ft | 0 kts | 0° |
| 2026-05-06 05:37 | 35.97491 | -115.13878 | 2439 ft | 10 kts | 51° |
| 2026-05-06 05:38 | 35.97524 | -115.13772 | 2438 ft | 18 kts | 92° |
| 2026-05-06 05:38 | 35.97541 | -115.13691 | 2436 ft | 6 kts | 359° |
| 2026-05-06 05:38 | 35.97580 | -115.13691 | 2434 ft | 9 kts | 0° |
| 2026-05-06 05:38 | 35.97668 | -115.13690 | 2430 ft | 15 kts | 1° |
| 2026-05-06 05:39 | 35.97784 | -115.13689 | 2429 ft | 18 kts | 360° |
| 2026-05-06 05:39 | 35.97911 | -115.13724 | 2425 ft | 19 kts | 11° |
| 2026-05-06 05:39 | 35.97936 | -115.13645 | 2425 ft | 11 kts | 56° |
| 2026-05-06 05:39 | 35.98020 | -115.13634 | 2421 ft | 15 kts | 1° |
| 2026-05-06 05:40 | 35.98085 | -115.13612 | 2418 ft | 3 kts | 98° |
| 2026-05-06 05:40 | 35.98085 | -115.13608 | 2418 ft | 0 kts | 91° |
| 2026-05-06 05:42 | 35.98085 | -115.13604 | 2418 ft | 2 kts | 91° |
| 2026-05-06 05:42 | 35.98060 | -115.13537 | 2420 ft | 17 kts | 167° |
| 2026-05-06 05:43 | 35.97873 | -115.13538 | 2428 ft | 45 kts | 180° |
| 2026-05-06 05:43 | 35.97394 | -115.13542 | 2443 ft | 88 kts | 181° |
| 2026-05-06 05:43 | 35.96680 | -115.13551 | 2525 ft | 114 kts | 182° |
| 2026-05-06 05:43 | 35.95799 | -115.13517 | 2614 ft | 140 kts | 181° |
| 2026-05-06 05:44 | 35.94826 | -115.13597 | 2977 ft | 143 kts | 199° |
| 2026-05-06 05:44 | 35.93970 | -115.14137 | 3451 ft | 137 kts | 216° |
| 2026-05-06 05:44 | 35.93132 | -115.14780 | 3779 ft | 144 kts | 213° |
| 2026-05-06 05:44 | 35.92288 | -115.15425 | 4218 ft | 141 kts | 214° |
| 2026-05-06 05:45 | 35.91446 | -115.16067 | 4577 ft | 144 kts | 213° |
| 2026-05-06 05:45 | 35.90473 | -115.16400 | 4958 ft | 149 kts | 189° |
| 2026-05-06 05:45 | 35.89408 | -115.16287 | 5355 ft | 154 kts | 177° |
| 2026-05-06 05:45 | 35.88353 | -115.16131 | 5731 ft | 155 kts | 179° |
| 2026-05-06 05:46 | 35.87261 | -115.15977 | 5997 ft | 166 kts | 176° |
| 2026-05-06 05:46 | 35.86039 | -115.15804 | 6008 ft | 186 kts | 176° |
| 2026-05-06 05:46 | 35.84699 | -115.15613 | 5995 ft | 201 kts | 176° |
| 2026-05-06 05:46 | 35.83318 | -115.15408 | 6308 ft | 191 kts | 175° |
| 2026-05-06 05:47 | 35.82092 | -115.15221 | 7000 ft | 165 kts | 174° |
| 2026-05-06 05:47 | 35.80974 | -115.15051 | 7429 ft | 165 kts | 173° |
| 2026-05-06 05:47 | 35.79819 | -115.14881 | 7782 ft | 167 kts | 173° |
| 2026-05-06 05:47 | 35.78665 | -115.14714 | 8157 ft | 169 kts | 172° |
| 2026-05-06 05:48 | 35.77474 | -115.14537 | 8491 ft | 173 kts | 173° |
| 2026-05-06 05:48 | 35.76279 | -115.14365 | 8884 ft | 174 kts | 172° |
| 2026-05-06 05:48 | 35.75062 | -115.14343 | 9233 ft | 178 kts | 192° |
| 2026-05-06 05:48 | 35.73936 | -115.14965 | 9584 ft | 179 kts | 219° |
| 2026-05-06 05:49 | 35.73127 | -115.16108 | 9953 ft | 178 kts | 245° |
| 2026-05-06 05:49 | 35.72606 | -115.17486 | 10287 ft | 179 kts | 249° |
| 2026-05-06 05:49 | 35.72078 | -115.18874 | 10610 ft | 180 kts | 249° |
| 2026-05-06 05:49 | 35.71727 | -115.19799 | 10842 ft | 181 kts | 249° |
| 2026-05-06 05:50 | 35.71195 | -115.21209 | 11178 ft | 183 kts | 249° |
| 2026-05-06 05:50 | 35.70659 | -115.22627 | 11528 ft | 183 kts | 249° |
| 2026-05-06 05:50 | 35.70119 | -115.24055 | 11864 ft | 185 kts | 249° |
| 2026-05-06 05:50 | 35.69574 | -115.25495 | 12213 ft | 186 kts | 249° |
| 2026-05-06 05:51 | 35.69026 | -115.26943 | 12565 ft | 187 kts | 249° |
| 2026-05-06 05:51 | 35.68429 | -115.28376 | 12888 ft | 191 kts | 237° |
| 2026-05-06 05:51 | 35.67541 | -115.29598 | 13245 ft | 191 kts | 230° |
| 2026-05-06 05:51 | 35.66654 | -115.30831 | 13554 ft | 194 kts | 231° |
| 2026-05-06 05:52 | 35.65759 | -115.32081 | 13880 ft | 195 kts | 231° |
| 2026-05-06 05:52 | 35.64789 | -115.33235 | 14081 ft | 199 kts | 204° |
| 2026-05-06 05:52 | 35.63540 | -115.33946 | 14330 ft | 199 kts | 223° |
| 2026-05-06 05:52 | 35.62831 | -115.35354 | 14632 ft | 194 kts | 255° |
| 2026-05-06 05:53 | 35.62270 | -115.36882 | 14901 ft | 199 kts | 240° |
| 2026-05-06 05:53 | 35.61260 | -115.38045 | 15185 ft | 202 kts | 209° |
| 2026-05-06 05:53 | 35.59947 | -115.38633 | 15481 ft | 201 kts | 186° |
| 2026-05-06 05:53 | 35.58567 | -115.38637 | 15783 ft | 198 kts | 172° |
| 2026-05-06 05:54 | 35.57190 | -115.38523 | 16083 ft | 199 kts | 173° |
| 2026-05-06 05:54 | 35.55806 | -115.38424 | 16386 ft | 200 kts | 173° |
| 2026-05-06 05:54 | 35.54417 | -115.38324 | 16688 ft | 200 kts | 173° |
| 2026-05-06 05:54 | 35.53025 | -115.38223 | 17002 ft | 201 kts | 173° |
| 2026-05-06 05:55 | 35.51628 | -115.38122 | 17335 ft | 201 kts | 173° |
| 2026-05-06 05:55 | 35.50225 | -115.38021 | 17657 ft | 202 kts | 173° |
| 2026-05-06 05:55 | 35.48818 | -115.37919 | 17998 ft | 203 kts | 172° |
| 2026-05-06 05:55 | 35.47407 | -115.37817 | 18319 ft | 204 kts | 172° |
| 2026-05-06 05:56 | 35.45987 | -115.37715 | 18600 ft | 205 kts | 172° |
| 2026-05-06 05:56 | 35.44558 | -115.37611 | 18871 ft | 206 kts | 172° |
| 2026-05-06 05:56 | 35.43124 | -115.37508 | 19150 ft | 207 kts | 172° |
| 2026-05-06 05:56 | 35.41730 | -115.37411 | 19415 ft | 209 kts | 172° |
| 2026-05-06 05:57 | 35.40221 | -115.37306 | 19711 ft | 210 kts | 172° |
| 2026-05-06 05:57 | 35.38765 | -115.37204 | 20018 ft | 210 kts | 171° |
| 2026-05-06 05:57 | 35.37300 | -115.37101 | 20299 ft | 211 kts | 171° |
| 2026-05-06 05:57 | 35.35829 | -115.36998 | 20585 ft | 212 kts | 171° |
| 2026-05-06 05:58 | 35.34350 | -115.36894 | 20872 ft | 214 kts | 171° |
| 2026-05-06 05:58 | 35.32861 | -115.36789 | 21154 ft | 215 kts | 171° |
| 2026-05-06 05:58 | 35.31367 | -115.36685 | 21435 ft | 216 kts | 170° |
| 2026-05-06 05:58 | 35.29883 | -115.36581 | 21711 ft | 217 kts | 170° |
| 2026-05-06 05:59 | 35.28350 | -115.36473 | 21970 ft | 220 kts | 170° |
| 2026-05-06 05:59 | 35.26772 | -115.36360 | 21981 ft | 234 kts | 171° |
| 2026-05-06 05:59 | 35.25112 | -115.36245 | 21990 ft | 244 kts | 171° |
| 2026-05-06 05:59 | 35.23414 | -115.36134 | 21985 ft | 251 kts | 171° |
| 2026-05-06 06:00 | 35.21655 | -115.36016 | 21983 ft | 256 kts | 171° |
| 2026-05-06 06:00 | 35.19861 | -115.35891 | 21981 ft | 260 kts | 171° |
| 2026-05-06 06:00 | 35.18044 | -115.35764 | 21980 ft | 263 kts | 171° |
| 2026-05-06 06:00 | 35.16213 | -115.35636 | 21982 ft | 264 kts | 172° |
| 2026-05-06 06:01 | 35.14372 | -115.35507 | 21980 ft | 265 kts | 172° |
| 2026-05-06 06:01 | 35.12527 | -115.35378 | 21970 ft | 266 kts | 172° |
| 2026-05-06 06:01 | 35.10677 | -115.35248 | 21970 ft | 266 kts | 172° |
| 2026-05-06 06:01 | 35.08828 | -115.35120 | 21971 ft | 267 kts | 172° |
| 2026-05-06 06:02 | 35.06971 | -115.34991 | 21969 ft | 267 kts | 172° |
| 2026-05-06 06:02 | 35.05115 | -115.34861 | 21966 ft | 267 kts | 172° |
| 2026-05-06 06:02 | 35.03259 | -115.34735 | 21957 ft | 267 kts | 172° |
| 2026-05-06 06:02 | 35.01411 | -115.34602 | 21956 ft | 266 kts | 172° |
| 2026-05-06 06:03 | 34.99559 | -115.34473 | 21958 ft | 266 kts | 172° |
| 2026-05-06 06:03 | 34.97710 | -115.34345 | 21957 ft | 266 kts | 172° |
| 2026-05-06 06:03 | 34.95859 | -115.34217 | 21956 ft | 266 kts | 172° |
| 2026-05-06 06:03 | 34.94008 | -115.34088 | 21951 ft | 266 kts | 173° |
| 2026-05-06 06:04 | 34.92164 | -115.33961 | 21947 ft | 265 kts | 173° |
| 2026-05-06 06:04 | 34.90323 | -115.33833 | 21946 ft | 265 kts | 173° |
| 2026-05-06 06:04 | 34.88484 | -115.33705 | 21945 ft | 265 kts | 173° |
| 2026-05-06 06:04 | 34.86646 | -115.33577 | 21943 ft | 264 kts | 173° |
| 2026-05-06 06:05 | 34.84812 | -115.33450 | 21933 ft | 264 kts | 173° |
| 2026-05-06 06:05 | 34.82981 | -115.33324 | 21932 ft | 264 kts | 173° |
| 2026-05-06 06:05 | 34.81138 | -115.33196 | 21931 ft | 264 kts | 173° |
| 2026-05-06 06:05 | 34.79301 | -115.33082 | 21933 ft | 265 kts | 176° |
| 2026-05-06 06:06 | 34.77463 | -115.33401 | 21950 ft | 270 kts | 193° |
| 2026-05-06 06:06 | 34.75685 | -115.34167 | 21938 ft | 271 kts | 198° |
| 2026-05-06 06:06 | 34.73909 | -115.34947 | 21937 ft | 272 kts | 197° |
| 2026-05-06 06:06 | 34.72127 | -115.35723 | 21938 ft | 272 kts | 197° |
| 2026-05-06 06:07 | 34.70348 | -115.36503 | 21939 ft | 271 kts | 198° |
| 2026-05-06 06:07 | 34.68579 | -115.37280 | 21937 ft | 270 kts | 198° |
| 2026-05-06 06:07 | 34.66815 | -115.38052 | 21936 ft | 269 kts | 198° |
| 2026-05-06 06:07 | 34.65054 | -115.38822 | 21919 ft | 269 kts | 198° |
| 2026-05-06 06:08 | 34.63275 | -115.39601 | 21696 ft | 276 kts | 199° |
| 2026-05-06 06:08 | 34.61450 | -115.40403 | 21351 ft | 282 kts | 199° |
| 2026-05-06 06:08 | 34.59594 | -115.41217 | 20979 ft | 284 kts | 199° |
| 2026-05-06 06:08 | 34.57748 | -115.42026 | 20604 ft | 280 kts | 199° |
| 2026-05-06 06:09 | 34.55930 | -115.42818 | 20237 ft | 275 kts | 199° |
| 2026-05-06 06:09 | 34.54168 | -115.43585 | 19871 ft | 271 kts | 199° |
| 2026-05-06 06:09 | 34.52405 | -115.44354 | 19515 ft | 268 kts | 199° |
| 2026-05-06 06:09 | 34.50657 | -115.45117 | 19163 ft | 266 kts | 200° |
| 2026-05-06 06:10 | 34.48926 | -115.45871 | 18816 ft | 264 kts | 200° |
| 2026-05-06 06:10 | 34.47205 | -115.46621 | 18470 ft | 262 kts | 200° |
| 2026-05-06 06:10 | 34.45494 | -115.47365 | 18116 ft | 261 kts | 200° |
| 2026-05-06 06:10 | 34.43797 | -115.48104 | 17754 ft | 258 kts | 201° |
| 2026-05-06 06:11 | 34.42118 | -115.48834 | 17407 ft | 255 kts | 200° |
| 2026-05-06 06:11 | 34.40456 | -115.49556 | 17072 ft | 253 kts | 200° |
| 2026-05-06 06:11 | 34.38802 | -115.50275 | 16739 ft | 252 kts | 200° |
| 2026-05-06 06:11 | 34.37155 | -115.50991 | 16408 ft | 251 kts | 200° |
| 2026-05-06 06:12 | 34.35510 | -115.51705 | 16083 ft | 251 kts | 200° |
| 2026-05-06 06:12 | 34.33863 | -115.52421 | 15758 ft | 251 kts | 200° |
| 2026-05-06 06:12 | 34.32305 | -115.53364 | 15438 ft | 251 kts | 217° |
| 2026-05-06 06:12 | 34.31005 | -115.54764 | 15103 ft | 251 kts | 225° |
| 2026-05-06 06:13 | 34.29728 | -115.56212 | 14765 ft | 252 kts | 225° |
| 2026-05-06 06:13 | 34.28447 | -115.57653 | 14436 ft | 252 kts | 224° |
| 2026-05-06 06:13 | 34.27166 | -115.59097 | 14102 ft | 252 kts | 224° |
| 2026-05-06 06:13 | 34.25882 | -115.60544 | 13770 ft | 252 kts | 224° |
| 2026-05-06 06:14 | 34.24598 | -115.61992 | 13408 ft | 251 kts | 225° |
| 2026-05-06 06:14 | 34.23336 | -115.63413 | 13073 ft | 245 kts | 224° |
| 2026-05-06 06:14 | 34.22096 | -115.64806 | 12761 ft | 242 kts | 225° |
| 2026-05-06 06:14 | 34.20873 | -115.66180 | 12449 ft | 240 kts | 225° |
| 2026-05-06 06:15 | 34.19665 | -115.67545 | 12135 ft | 236 kts | 226° |
| 2026-05-06 06:15 | 34.18468 | -115.68888 | 11832 ft | 234 kts | 225° |
| 2026-05-06 06:15 | 34.17274 | -115.70220 | 11521 ft | 234 kts | 225° |
| 2026-05-06 06:15 | 34.16088 | -115.71557 | 11213 ft | 232 kts | 225° |
| 2026-05-06 06:16 | 34.14912 | -115.72881 | 10906 ft | 230 kts | 224° |
| 2026-05-06 06:16 | 34.13744 | -115.74192 | 10604 ft | 229 kts | 224° |
| 2026-05-06 06:16 | 34.12577 | -115.75500 | 10301 ft | 229 kts | 224° |
| 2026-05-06 06:16 | 34.11413 | -115.76802 | 10015 ft | 228 kts | 223° |
| 2026-05-06 06:17 | 34.10125 | -115.77911 | 9963 ft | 227 kts | 214° |
| 2026-05-06 06:17 | 34.08805 | -115.78968 | 9965 ft | 229 kts | 215° |
| 2026-05-06 06:17 | 34.07484 | -115.80048 | 9968 ft | 230 kts | 215° |
| 2026-05-06 06:17 | 34.06153 | -115.81135 | 9937 ft | 232 kts | 215° |
| 2026-05-06 06:18 | 34.04823 | -115.82217 | 9856 ft | 236 kts | 215° |
| 2026-05-06 06:18 | 34.03444 | -115.83338 | 9727 ft | 235 kts | 215° |
| 2026-05-06 06:18 | 34.02094 | -115.84435 | 9582 ft | 233 kts | 215° |
| 2026-05-06 06:18 | 34.00774 | -115.85505 | 9434 ft | 230 kts | 215° |
| 2026-05-06 06:19 | 33.99448 | -115.86579 | 9285 ft | 229 kts | 215° |
| 2026-05-06 06:19 | 33.98127 | -115.87650 | 9130 ft | 229 kts | 215° |
| 2026-05-06 06:19 | 33.96808 | -115.88720 | 8978 ft | 228 kts | 216° |
| 2026-05-06 06:19 | 33.95493 | -115.89783 | 8837 ft | 227 kts | 215° |
| 2026-05-06 06:20 | 33.94183 | -115.90846 | 8687 ft | 227 kts | 215° |
| 2026-05-06 06:20 | 33.92872 | -115.91908 | 8530 ft | 227 kts | 215° |
| 2026-05-06 06:20 | 33.91562 | -115.92968 | 8389 ft | 227 kts | 215° |
| 2026-05-06 06:20 | 33.90253 | -115.94027 | 8239 ft | 227 kts | 215° |
| 2026-05-06 06:21 | 33.88943 | -115.95087 | 8089 ft | 227 kts | 215° |
| 2026-05-06 06:21 | 33.87738 | -115.96291 | 7978 ft | 224 kts | 232° |
| 2026-05-06 06:21 | 33.86901 | -115.97820 | 7967 ft | 215 kts | 241° |
| 2026-05-06 06:21 | 33.86126 | -115.99330 | 7956 ft | 210 kts | 239° |
| 2026-05-06 06:22 | 33.85363 | -116.00803 | 7954 ft | 206 kts | 240° |
| 2026-05-06 06:22 | 33.84617 | -116.02264 | 7957 ft | 205 kts | 240° |
| 2026-05-06 06:22 | 33.83869 | -116.03727 | 7959 ft | 204 kts | 240° |
| 2026-05-06 06:22 | 33.83124 | -116.05182 | 7958 ft | 204 kts | 241° |
| 2026-05-06 06:23 | 33.82371 | -116.06650 | 7964 ft | 208 kts | 240° |
| 2026-05-06 06:23 | 33.81633 | -116.08152 | 7969 ft | 208 kts | 247° |
| 2026-05-06 06:23 | 33.81173 | -116.09787 | 7977 ft | 207 kts | 256° |
| 2026-05-06 06:23 | 33.80783 | -116.11517 | 7599 ft | 221 kts | 259° |
| 2026-05-06 06:24 | 33.80447 | -116.13334 | 7142 ft | 223 kts | 262° |
| 2026-05-06 06:24 | 33.80181 | -116.15173 | 6692 ft | 223 kts | 264° |
| 2026-05-06 06:24 | 33.79995 | -116.16974 | 6230 ft | 208 kts | 267° |
| 2026-05-06 06:24 | 33.79886 | -116.18630 | 5740 ft | 191 kts | 270° |
| 2026-05-06 06:25 | 33.79846 | -116.20179 | 5254 ft | 181 kts | 273° |
| 2026-05-06 06:25 | 33.79869 | -116.21655 | 4773 ft | 173 kts | 275° |
| 2026-05-06 06:25 | 33.80092 | -116.24430 | 3804 ft | 163 kts | 282° |
| 2026-05-06 06:26 | 33.80292 | -116.25768 | 3378 ft | 157 kts | 284° |
| 2026-05-06 06:26 | 33.80525 | -116.26963 | 3410 ft | 145 kts | 284° |
| 2026-05-06 06:26 | 33.80808 | -116.28127 | 3383 ft | 145 kts | 288° |
| 2026-05-06 06:26 | 33.81127 | -116.29277 | 3349 ft | 145 kts | 287° |
| 2026-05-06 06:27 | 33.81351 | -116.30472 | 3256 ft | 148 kts | 279° |
| 2026-05-06 06:27 | 33.81494 | -116.31679 | 3260 ft | 144 kts | 280° |
| 2026-05-06 06:27 | 33.81686 | -116.32861 | 3271 ft | 144 kts | 283° |
| 2026-05-06 06:27 | 33.81930 | -116.34025 | 3276 ft | 144 kts | 285° |
| 2026-05-06 06:28 | 33.82247 | -116.35175 | 3275 ft | 145 kts | 291° |
| 2026-05-06 06:28 | 33.82520 | -116.36333 | 3296 ft | 145 kts | 276° |
| 2026-05-06 06:28 | 33.82462 | -116.37579 | 3229 ft | 158 kts | 262° |
| 2026-05-06 06:28 | 33.82220 | -116.38903 | 3125 ft | 165 kts | 257° |
| 2026-05-06 06:29 | 33.81912 | -116.40252 | 3000 ft | 170 kts | 256° |
| 2026-05-06 06:29 | 33.81591 | -116.41651 | 2836 ft | 176 kts | 258° |
| 2026-05-06 06:29 | 33.81260 | -116.43094 | 2617 ft | 184 kts | 255° |
| 2026-05-06 06:29 | 33.80845 | -116.44520 | 2309 ft | 172 kts | 250° |
| 2026-05-06 06:30 | 33.80437 | -116.45780 | 2083 ft | 151 kts | 255° |
| 2026-05-06 06:30 | 33.80273 | -116.46916 | 1892 ft | 123 kts | 272° |
| 2026-05-06 06:30 | 33.80424 | -116.47876 | 1471 ft | 114 kts | 294° |
| 2026-05-06 06:30 | 33.80758 | -116.48640 | 1182 ft | 103 kts | 307° |
| 2026-05-06 06:31 | 33.81248 | -116.49266 | 769 ft | 103 kts | 323° |
| 2026-05-06 06:31 | 33.81830 | -116.49755 | 510 ft | 97 kts | 323° |
| 2026-05-06 06:31 | 33.82341 | -116.50206 | 408 ft | 83 kts | 322° |
| 2026-05-06 06:31 | 33.82735 | -116.50560 | 423 ft | 55 kts | 321° |
| 2026-05-06 06:32 | 33.82896 | -116.50757 | 432 ft | 12 kts | 253° |
| 2026-05-06 06:32 | 33.82886 | -116.50792 | 432 ft | 0 kts | 246° |
| 2026-05-06 06:32 | 33.82866 | -116.50845 | 429 ft | 19 kts | 234° |
| 2026-05-06 06:33 | 33.82825 | -116.50853 | 432 ft | 18 kts | 152° |
| 2026-05-06 06:33 | 33.82759 | -116.50796 | 427 ft | 20 kts | 138° |
| 2026-05-06 06:33 | 33.82644 | -116.50702 | 426 ft | 20 kts | 152° |
| 2026-05-06 06:34 | 33.82537 | -116.50754 | 425 ft | 16 kts | 260° |
| 2026-05-06 06:34 | 33.82531 | -116.50870 | 425 ft | 11 kts | 284° |
| 2026-05-06 06:34 | 33.82566 | -116.50914 | 427 ft | 6 kts | 327° |
| 2026-05-06 06:34 | 33.82616 | -116.50954 | 426 ft | 11 kts | 331° |
| 2026-05-06 06:35 | 33.82664 | -116.50962 | 431 ft | 0 kts | 0° |
| 2026-05-06 06:39 | 33.82657 | -116.50955 | 431 ft | 2 kts | 295° |
| 2026-05-06 06:39 | 33.82655 | -116.50950 | 431 ft | 0 kts | 285° |
| 2026-05-06 06:39 | 33.82654 | -116.50947 | 431 ft | 2 kts | 289° |
| 2026-05-06 06:40 | 33.82645 | -116.50931 | 424 ft | 1 kts | 298° |
| 2026-05-06 06:40 | 33.82644 | -116.50930 | 424 ft | 0 kts | 288° |